KSZL/SZL METAR and TAF weather

Enter ICAO airport designator
Station Type Date Time Source
KSZL METAR 2019/10/23 11:56 UTC NOAA

KSZL 231156Z 19009KT 10SM SCT100 05/04 A2989 RMK AO2A SLP127 T00490037 10069 20046 50001 $


Station Type Date Time Source
KSZL Decoded METAR 2019/10/23 11:56 UTC NOAA

Whiteman Air Force Base, MO, United States (KSZL) 38-44N 093-33W
Oct 23, 2019 - 07:56 AM EDT / 2019.10.23 1156 UTC
Wind: from the S (190 degrees) at 10 MPH (9 KT):0
Visibility: 10 mile(s):0
Sky conditions: partly cloudy
Temperature: 40.8 F (4.9 C)
Dew Point: 38.7 F (3.7 C)
Relative Humidity: 91%
Pressure (altimeter): 29.89 in. Hg (1012 hPa)
Pressure tendency: 0.00 inches (0.1 hPa) higher than three hours ago
ob: KSZL 231156Z 19009KT 10SM SCT100 05/04 A2989 RMK AO2A SLP127 T00490037 10069 20046 50001
cycle: 12

Station Type Date Time Source
KSZL TAF 2019/10/23 11:04 UTC NOAA

TAF KSZL 231100Z 2311/2417 20009KT 9999 SCT100 WS020/23040KT QNH2989INS
BECMG 2314/2315 23012G18KT 9999 SCT100 QNH2988INS
TEMPO 2317/2320 25015G30KT
BECMG 2400/2401 32006KT 9999 SCT050 BKN100 QNH2997INS
BECMG 2407/2408 35009KT 9999 BKN030 QNH3035INS TX20/2320Z TN06/2311Z

Example: see airport list